Historyczne dane pomiarowe

Dodano dane terminowe – wersja testowa.

Dane z okresu 1951-2019

Wersja bazy: 1.34 [2019-03-16, lista zmian], aktualizacja planowana na 2019-04-15

Dane meteo z obszaru Polski uzyskane na podstawie danych udostępnionych przez Instytut Meteorologii i Gospodarki Wodnej – Państwowy Instytut Badawczy.

 

Wybierz Datę:    

       

TemperaturaWilgotnośćWiatrCiśnienieOpadyŚniegCzas trwania zjawisk
 Stacja t tx tn tng RH VA  wxwx mslp ppp RRR   cm mm wxwxwxwxwxwxwx
1987-08-14 14.1 20.9 7.7 3.5 78.8- 5.0 1.7---- 0.0------------
1987-08-13 14.2 20.7 7.4 3.5 68.3- 4.3 2.0---- 0.0------------
1987-08-12 12.9 18.6 8.5 5.5 77.0- 3.7 1.3---- 0.0------------
1987-08-11 14.7 18.4 12.2 9.7 70.8- 5.3 3.0---- 0.0------------
1987-08-10 15.2 20.4 14.0 11.2 84.8- 5.7 2.7---- 2.3------------
1987-08-09 17.1 24.9 9.0 5.5 66.5- 3.7 1.0---- 0.0------------
1987-08-08 15.3 21.3 10.5 8.7 66.5- 1.3 1.7---- 0.0------------
1987-08-07 12.2 16.5 7.3 3.0 72.8- 6.0 1.7---- 0.5------------
1987-08-06 12.3 15.9 10.4 8.2 76.3- 4.0 1.3---- 2.0------------
1987-08-05 13.6 18.8 9.7 7.0 75.3- 7.0 0.7---- 0.0------------
1987-08-04 16.3 20.5 12.5 9.0 79.0- 6.7 1.0---- 1.3------------
1987-08-03 15.9 20.5 11.6 8.7 76.3- 5.7 1.3---- 0.0------------
1987-08-02 16.4 20.1 13.7 12.4 68.0- 6.3 2.0---- 9.9------------
1987-08-01 16.7 22.7 10.0 6.0 75.3- 7.0 1.3---- 0.4------------
1987-07-31 16.6 21.6 14.9 12.5 89.0- 7.7 1.0---- 0.0------------
1987-07-30 19.6 25.9 13.6 11.3 70.0- 1.3 1.3---- 1.3------------
1987-07-29 15.9 20.6 11.5 8.9 64.0- 6.3 1.3---- 0.0------------
1987-07-28 13.9 17.7 13.0 11.6 81.3- 7.7 2.3---- 0.6------------
1987-07-27 14.0 18.6 9.8 7.5 67.3- 5.7 3.3---- 1.9------------
1987-07-26 14.2 20.8 11.4 11.1 88.8- 7.3 0.7---- 8.5------------
1987-07-25 20.4 25.8 15.6 12.6 76.3- 4.7 1.0---- 1.7------------
1987-07-24 21.4 28.7 18.2 15.5 79.0- 6.0 1.7---- 0.1------------
1987-07-23 21.7 29.6 14.4 11.3 76.8- 0.0 0.3---- 18.7------------
1987-07-22 21.0 26.2 17.1 16.3 79.0- 4.0 1.7---- 0.0------------
1987-07-21 21.8 28.5 15.2 12.3 75.3- 2.7 1.3---- 0.0------------
1987-07-20 21.8 25.9 18.6 16.3 73.3- 0.7 2.7---- 0.0------------
1987-07-19 23.7 29.9 20.2 18.5 78.0- 3.3 1.3---- 1.6------------
1987-07-18 24.6 32.4 17.8 14.9 72.3- 1.7 0.3---- 0.6------------
1987-07-17 23.3 32.0 16.8 13.6 80.5- 4.7 0.7---- 0.0------------
1987-07-16 20.8 28.6 12.8 10.0 74.8- 2.3 1.0---- 3.2------------
1987-07-15 18.2 25.9 10.1 6.5 73.5- 0.3 1.0---- 0.0------------
1987-07-14 18.4 23.2 12.8 9.0 60.8- 0.7 1.0---- 0.0------------
1987-07-13 19.8 25.5 15.7 12.7 73.3- 3.3 2.0---- 0.0------------
1987-07-12 22.7 30.5 13.6 10.0 62.3- 3.7 2.0---- 9.5------------
1987-07-11 18.6 25.6 11.2 8.4 62.0- 1.7 2.0---- 0.0------------
1987-07-10 16.4 20.6 12.6 10.4 68.3- 3.3 1.7---- 0.0------------
1987-07-09 17.5 25.8 15.5 13.7 89.8- 7.7 1.3---- 9.9------------
1987-07-08 22.4 30.2 13.4 9.8 62.8- 0.3 0.3---- 0.1------------
1987-07-07 19.6 28.7 10.3 7.0 66.0- 0.0 0.7---- 0.0------------
1987-07-06 18.6 25.5 11.4 8.4 70.5- 1.0 0.7---- 0.0------------
1987-07-05 18.0 22.0 15.0 15.0 69.8- 4.3 1.7---- 0.4------------
1987-07-04 20.8 25.3 16.0 12.8 70.8- 5.0 1.0---- 0.0------------
1987-07-03 19.9 24.8 16.6 16.1 74.0- 8.0 0.3---- 0.0------------
1987-07-02 20.4 29.4 17.8 16.6 84.3- 8.0 1.3---- 0.2------------
1987-07-01 26.0 31.9 19.0 16.1 69.0- 1.7 1.0---- 0.0------------
1987-06-30 24.0 31.2 16.1 12.7 74.0- 0.0 0.7---- 0.0------------
1987-06-29 22.4 27.3 17.5 14.0 71.8- 3.0 0.3---- 0.0------------
1987-06-28 20.2 26.4 14.2 10.6 71.3- 5.3 2.0---- 0.0------------
1987-06-27 19.0 22.8 15.3 13.4 82.3- 7.3 1.3---- 0.0------------
1987-06-26 17.8 26.2 8.3 4.7 69.0- 4.3 0.7---- 11.6------------
1987-06-25 16.2 19.7 14.4 10.6 74.0- 6.0 3.7---- 0.0------------
1987-06-24 17.6 22.0 13.8 9.5 68.0- 4.3 2.0---- 0.2------------
1987-06-23 17.0 21.5 14.2 12.8 74.8- 6.7 2.7---- 0.0------------
1987-06-22 17.0 22.8 13.9 11.9 78.0- 4.7 1.7---- 2.2------------
1987-06-21 18.0 26.2 11.2 7.8 75.0- 4.0 1.3---- 0.2------------
1987-06-20 16.7 24.2 8.5 5.2 68.3- 4.3 1.3---- 0.0------------
1987-06-19 13.9 19.7 9.3 6.4 69.8- 3.0 1.7---- 0.0------------
1987-06-18 10.9 16.6 7.0 4.0 78.5- 4.0 1.7---- 0.4------------
1987-06-17 12.1 15.0 9.7 7.4 74.3- 4.0 2.3---- 1.1------------
1987-06-16 15.2 25.5 11.4 11.6 80.3- 6.7 1.3---- 5.5------------
457.5 ms

 

Źródłem pochodzenia danych jest Instytut Meteorologii i Gospodarki Wodnej – Państwowy Instytut Badawczy. Dane Instytutu Meteorologii i Gospodarki Wodnej – Państwowego Instytutu Badawczego zostały przetworzone.

Dane źródłowe można odnaleźć na stronie https://dane.imgw.pl